Time;durP1;ratioP1;P1;durP2;ratioP2;P2;SDS_P1;SDS_P2;PMS_P1;PMS_P2;Temp;Humidity;BMP_temperature;BMP_pressure;BME280_temperature;BME280_humidity;BME280_pressure;Samples;Min_cycle;Max_cycle;Signal;HPM_P1;HPM_P2
2022/08/16 00:01:39;;;;;;;14.82;7.78;;;17.60;99.90;;;;;;4971133;28;20046;-53
2022/08/16 00:04:43;;;;;;;21.08;7.13;;;17.60;99.90;;;;;;4970990;28;20528;-56
2022/08/16 00:11:29;;;;;;;17.33;7.90;;;17.70;99.90;;;;;;4971203;28;20528;-57
2022/08/16 00:14:33;;;;;;;21.02;7.55;;;17.60;99.90;;;;;;4970906;28;20082;-53
2022/08/16 00:17:37;;;;;;;19.52;7.82;;;17.70;99.90;;;;;;4970159;28;20050;-53
2022/08/16 00:20:43;;;;;;;17.40;6.80;;;17.60;99.90;;;;;;4970653;28;20513;-53
2022/08/16 00:24:06;;;;;;;15.18;7.10;;;17.60;99.90;;;;;;4970595;28;20054;-56
2022/08/16 00:27:10;;;;;;;18.92;7.57;;;17.60;99.90;;;;;;4970795;28;20049;-53
2022/08/16 00:30:17;;;;;;;9.35;6.07;;;17.60;99.90;;;;;;4969721;28;20049;-53
2022/08/16 00:33:21;;;;;;;17.08;6.22;;;17.60;99.90;;;;;;4969557;28;20497;-52
2022/08/16 00:36:26;;;;;;;15.10;6.15;;;17.60;99.90;;;;;;4970845;28;20038;-54
2022/08/16 00:39:30;;;;;;;12.70;5.75;;;17.60;99.90;;;;;;4970522;28;20398;-54
2022/08/16 00:46:29;;;;;;;11.50;5.30;;;17.60;99.90;;;;;;4969540;28;20516;-54
2022/08/16 00:49:34;;;;;;;13.80;5.72;;;17.60;99.90;;;;;;4970592;28;20038;-53
2022/08/16 00:52:57;;;;;;;15.05;5.80;;;17.60;99.90;;;;;;4970462;28;20037;-53
2022/08/16 00:56:07;;;;;;;13.75;5.25;;;17.50;99.90;;;;;;4969760;28;20074;-53
2022/08/16 00:59:13;;;;;;;11.27;5.43;;;17.40;99.90;;;;;;4970632;28;20046;-54
2022/08/16 01:02:16;;;;;;;15.02;6.18;;;17.40;99.90;;;;;;4970192;28;20050;-56
2022/08/16 01:05:21;;;;;;;10.35;5.60;;;17.40;99.90;;;;;;4970064;28;20045;-55
2022/08/16 01:08:26;;;;;;;12.30;6.35;;;17.20;99.90;;;;;;4970499;28;20046;-54
2022/08/16 01:11:30;;;;;;;16.17;5.65;;;17.10;99.90;;;;;;4970261;28;20406;-53
2022/08/16 01:14:47;;;;;;;17.75;6.97;;;17.10;99.90;;;;;;4969597;28;20045;-55
2022/08/16 01:17:52;;;;;;;16.23;6.50;;;17.10;99.90;;;;;;4969951;28;20413;-54
2022/08/16 01:21:30;;;;;;;13.68;5.90;;;17.20;99.90;;;;;;4969372;28;20066;-54
2022/08/16 01:24:47;;;;;;;16.85;6.35;;;17.30;99.90;;;;;;4969885;28;20054;-57
2022/08/16 01:27:54;;;;;;;15.77;6.10;;;17.30;99.90;;;;;;4969412;28;20402;-57
2022/08/16 01:31:18;;;;;;;12.15;5.90;;;17.20;99.90;;;;;;4969272;28;20050;-52
2022/08/16 01:34:41;;;;;;;11.25;5.95;;;17.30;99.90;;;;;;4968708;28;20042;-53
2022/08/16 01:38:06;;;;;;;22.08;7.00;;;17.30;99.90;;;;;;4969658;28;20050;-52
2022/08/16 01:41:29;;;;;;;28.88;6.90;;;17.30;99.90;;;;;;4968140;28;20525;-54
2022/08/16 01:44:38;;;;;;;19.88;7.60;;;17.10;99.90;;;;;;4968353;28;20046;-52
2022/08/16 01:47:44;;;;;;;13.57;6.25;;;17.00;99.90;;;;;;4968988;28;20054;-54
2022/08/16 01:51:07;;;;;;;10.93;6.18;;;16.80;99.90;;;;;;4968897;28;20117;-53
2022/08/16 01:54:12;;;;;;;17.30;6.68;;;16.80;99.90;;;;;;4968264;28;20039;-55
2022/08/16 01:57:26;;;;;;;17.63;7.20;;;16.90;99.90;;;;;;4969526;28;20496;-52
2022/08/16 02:00:50;;;;;;;15.52;7.63;;;16.90;99.90;;;;;;4968743;28;20042;-53
2022/08/16 02:03:56;;;;;;;17.48;6.65;;;16.90;99.90;;;;;;4968094;28;20062;-52
2022/08/16 02:07:04;;;;;;;19.70;7.07;;;17.00;99.90;;;;;;4968708;28;20534;-57
2022/08/16 02:10:10;;;;;;;14.88;6.88;;;17.00;99.90;;;;;;4968730;28;20053;-51
2022/08/16 02:13:42;;;;;;;14.77;6.28;;;17.00;99.90;;;;;;4968589;28;20045;-52
2022/08/16 02:16:51;;;;;;;12.02;6.88;;;16.90;99.90;;;;;;4968754;28;20045;-54
2022/08/16 02:19:55;;;;;;;19.25;7.25;;;16.90;99.90;;;;;;4968385;28;20046;-54
2022/08/16 02:23:00;;;;;;;11.38;6.47;;;17.00;99.90;;;;;;4968912;28;20045;-55
2022/08/16 02:26:05;;;;;;;15.02;7.07;;;17.00;99.90;;;;;;4969131;28;20413;-53
2022/08/16 02:29:09;;;;;;;13.30;6.55;;;17.00;99.90;;;;;;4968188;28;20406;-54
2022/08/16 02:32:16;;;;;;;19.98;7.07;;;17.00;99.90;;;;;;4968286;28;20048;-57
2022/08/16 02:35:21;;;;;;;17.30;7.97;;;16.90;99.90;;;;;;4967627;28;20311;-52
2022/08/16 02:38:27;;;;;;;12.15;6.88;;;16.80;99.90;;;;;;4968830;28;20524;-53
2022/08/16 02:41:32;;;;;;;20.48;7.22;;;16.70;99.90;;;;;;4966636;28;20054;-56
2022/08/16 02:44:54;;;;;;;19.30;6.60;;;16.70;99.90;;;;;;4968297;28;20038;-53
2022/08/16 02:48:17;;;;;;;15.15;6.47;;;16.70;99.90;;;;;;4967765;28;20049;-54
2022/08/16 02:51:20;;;;;;;16.17;6.75;;;16.70;99.90;;;;;;4967890;28;20046;-52
2022/08/16 02:54:24;;;;;;;13.20;7.60;;;16.70;99.90;;;;;;4967552;28;20060;-52
2022/08/16 02:57:29;;;;;;;14.38;7.85;;;16.70;99.90;;;;;;4967892;28;20079;-53
2022/08/16 03:00:54;;;;;;;16.90;7.90;;;16.70;99.90;;;;;;4968984;28;20046;-58
2022/08/16 03:04:16;;;;;;;16.45;7.72;;;16.70;99.90;;;;;;4968040;28;20057;-52
2022/08/16 03:07:20;;;;;;;11.18;7.15;;;16.70;99.90;;;;;;4967838;28;20521;-53
2022/08/16 03:10:27;;;;;;;18.23;8.02;;;16.70;99.90;;;;;;4967473;28;20045;-54
2022/08/16 03:13:31;;;;;;;20.20;7.30;;;16.70;99.90;;;;;;4968145;28;20046;-53
2022/08/16 03:16:35;;;;;;;20.30;7.38;;;16.80;99.90;;;;;;4968103;28;20053;-53
2022/08/16 03:20:00;;;;;;;23.75;7.13;;;16.80;99.90;;;;;;4967825;28;20402;-52
2022/08/16 03:23:26;;;;;;;16.67;7.82;;;16.90;99.90;;;;;;4967438;28;20099;-55
2022/08/16 03:26:30;;;;;;;22.05;7.97;;;16.90;99.90;;;;;;4967585;28;20192;-51
2022/08/16 03:29:53;;;;;;;18.40;7.60;;;16.90;99.90;;;;;;4967373;28;20034;-54
2022/08/16 03:32:58;;;;;;;15.95;7.18;;;17.00;99.90;;;;;;4967561;28;20054;-55
2022/08/16 03:36:08;;;;;;;16.65;8.05;;;17.00;99.90;;;;;;4967439;28;20062;-53
2022/08/16 03:42:38;;;;;;;;;;;17.00;99.90;;;;;;4967574;28;20038;-51
2022/08/16 03:46:00;;;;;;;18.95;7.35;;;17.00;99.90;;;;;;4967469;28;20285;-53
2022/08/16 03:49:10;;;;;;;20.85;6.97;;;17.00;99.90;;;;;;4967600;28;20046;-55
2022/08/16 03:52:34;;;;;;;17.10;7.13;;;16.90;99.90;;;;;;4969922;28;20070;-54
2022/08/16 03:59:20;;;;;;;21.67;7.07;;;17.00;99.90;;;;;;4970397;28;20046;-53
2022/08/16 04:02:27;;;;;;;14.88;8.00;;;16.90;99.90;;;;;;4970460;28;20050;-54
2022/08/16 04:05:31;;;;;;;17.08;6.53;;;16.90;99.90;;;;;;4970153;28;20050;-57
2022/08/16 04:08:36;;;;;;;17.00;7.38;;;16.80;99.90;;;;;;4971047;28;20046;-53
2022/08/16 04:11:59;;;;;;;18.17;7.88;;;16.80;99.90;;;;;;4970947;28;20046;-52
2022/08/16 04:15:05;;;;;;;15.32;7.10;;;16.70;99.90;;;;;;4969780;28;20046;-52
2022/08/16 04:18:12;;;;;;;11.55;6.88;;;16.70;99.90;;;;;;4970183;28;20046;-53
2022/08/16 04:21:16;;;;;;;19.90;8.18;;;16.70;99.90;;;;;;4969758;28;20429;-56
2022/08/16 04:24:21;;;;;;;21.27;7.80;;;16.70;99.90;;;;;;4969980;28;20505;-53
2022/08/16 04:28:03;;;;;;;19.20;7.75;;;16.70;99.90;;;;;;4970988;28;20042;-51
2022/08/16 04:31:26;;;;;;;17.60;7.25;;;16.70;99.90;;;;;;4969390;28;20496;-53
2022/08/16 04:34:49;;;;;;;;;;;16.80;99.90;;;;;;4970413;28;20299;-53
2022/08/16 04:37:52;;;;;;;19.25;8.20;;;16.80;99.90;;;;;;4970488;28;19917;-55
2022/08/16 04:40:59;;;;;;;17.50;9.60;;;16.90;99.90;;;;;;4969552;28;20112;-52
2022/08/16 04:44:23;;;;;;;19.83;7.85;;;16.90;99.90;;;;;;4969986;28;20054;-56
2022/08/16 04:47:30;;;;;;;16.38;8.05;;;17.00;99.90;;;;;;4970334;28;20046;-57
2022/08/16 04:50:36;;;;;;;19.50;8.43;;;17.10;99.90;;;;;;4970535;28;20050;-52
2022/08/16 04:53:55;;;;;;;19.88;9.05;;;17.20;99.90;;;;;;4970352;28;20053;-52
2022/08/16 04:57:00;;;;;;;16.08;8.88;;;17.30;99.90;;;;;;4969102;28;20405;-52
2022/08/16 05:00:09;;;;;;;19.38;9.75;;;17.30;99.90;;;;;;4969648;28;20057;-55
2022/08/16 05:03:13;;;;;;;18.17;11.07;;;17.50;99.90;;;;;;4967859;28;20050;-56
2022/08/16 05:06:22;;;;;;;18.58;8.65;;;17.50;99.90;;;;;;5010008;22;20043;-46
2022/08/16 05:09:45;;;;;;;15.70;8.00;;;17.70;99.90;;;;;;5071407;28;20063;-49
2022/08/16 05:12:50;;;;;;;13.80;8.32;;;17.90;99.90;;;;;;5070422;28;20055;-46
2022/08/16 05:15:55;;;;;;;15.57;8.98;;;18.00;99.90;;;;;;5070323;28;20047;-45
2022/08/16 05:19:21;;;;;;;13.98;7.35;;;18.70;99.90;;;;;;5069781;28;20411;-46
2022/08/16 05:23:21;;;;;;;16.85;5.90;;;20.40;99.90;;;;;;5069201;28;20423;-49
2022/08/16 05:26:26;;;;;;;;;;;22.10;99.90;;;;;;5070449;28;20442;-48
2022/08/16 05:29:49;;;;;;;11.60;4.22;;;23.10;99.90;;;;;;5070855;28;19915;-46
2022/08/16 05:32:56;;;;;;;13.57;4.78;;;24.00;99.90;;;;;;5069700;28;20044;-45
2022/08/16 05:36:37;;;;;;;13.68;5.05;;;24.70;99.90;;;;;;5070179;28;20043;-46
2022/08/16 05:39:45;;;;;;;13.27;5.03;;;25.30;99.90;;;;;;5069478;28;20522;-46
2022/08/16 05:42:49;;;;;;;8.25;4.40;;;26.00;99.90;;;;;;5069777;28;20062;-46
2022/08/16 05:45:57;;;;;;;20.52;5.32;;;26.80;99.90;;;;;;5069787;28;20055;-47
2022/08/16 05:52:24;;;;;;;10.18;3.35;;;26.50;99.90;;;;;;5069232;28;20411;-45
2022/08/16 05:55:28;;;;;;;11.07;3.72;;;25.40;99.90;;;;;;5069379;28;20055;-46
2022/08/16 05:58:51;;;;;;;8.05;3.85;;;25.50;99.90;;;;;;5069429;28;20059;-45
2022/08/16 06:01:54;;;;;;;84.40;6.00;;;24.60;99.90;;;;;;5067134;28;20047;-48
2022/08/16 06:05:06;;;;;;;215.32;9.38;;;24.60;99.90;;;;;;5056840;28;20055;-47
2022/08/16 06:11:32;;;;;;;43.58;4.25;;;24.10;99.90;;;;;;5066403;28;20031;-50
2022/08/16 06:14:57;;;;;;;49.67;4.72;;;24.60;99.90;;;;;;5069336;28;20048;-47
2022/08/16 06:18:01;;;;;;;62.75;4.68;;;25.20;99.90;;;;;;5069884;28;20514;-47
2022/08/16 06:21:06;;;;;;;7.65;3.70;;;25.80;99.90;;;;;;5067961;28;20043;-48
2022/08/16 06:24:29;;;;;;;10.63;2.90;;;26.80;99.90;;;;;;5068632;28;20510;-45
2022/08/16 06:31:14;;;;;;;6.45;2.30;;;27.90;99.90;;;;;;5070086;28;20509;-46
2022/08/16 06:34:22;;;;;;;6.82;3.03;;;28.40;99.90;;;;;;5066576;28;20517;-51
2022/08/16 06:37:44;;;;;;;9.35;2.95;;;29.20;99.90;;;;;;5069263;28;20043;-49
2022/08/16 06:40:49;;;;;;;8.52;2.97;;;28.80;99.90;;;;;;5050058;28;20080;-50
2022/08/16 06:44:12;;;;;;;7.63;2.75;;;27.50;99.90;;;;;;5048055;28;20506;-46
2022/08/16 06:47:36;;;;;;;8.07;2.60;;;26.00;99.90;;;;;;5061890;28;20035;-46
2022/08/16 06:50:58;;;;;;;5.18;2.45;;;25.10;99.90;;;;;;5069457;28;20039;-50
2022/08/16 06:54:21;;;;;;;4.35;2.47;;;25.70;99.90;;;;;;5069192;28;20066;-45
2022/08/16 06:57:26;;;;;;;6.00;2.70;;;25.80;99.90;;;;;;5057360;28;20696;-46
2022/08/16 07:00:49;;;;;;;8.15;2.70;;;27.30;99.90;;;;;;5067866;28;20651;-47
2022/08/16 07:03:57;;;;;;;6.10;2.55;;;27.60;99.90;;;;;;5067466;28;20047;-45
2022/08/16 07:07:27;;;;;;;3.67;1.90;;;28.80;99.90;;;;;;5067966;28;20044;-47
2022/08/16 07:10:31;;;;;;;7.85;2.50;;;30.00;99.90;;;;;;5068615;28;20051;-49
2022/08/16 07:13:54;;;;;;;12.05;3.10;;;31.10;99.90;;;;;;5055727;28;20083;-50
2022/08/16 07:17:01;;;;;;;6.38;1.75;;;31.90;99.90;;;;;;5068008;28;20107;-48
2022/08/16 07:20:07;;;;;;;10.63;2.55;;;32.50;99.90;;;;;;5068748;28;20502;-48
2022/08/16 07:23:39;;;;;;;9.32;2.60;;;28.10;99.90;;;;;;5065701;28;20055;-49
2022/08/16 07:26:47;;;;;;;6.47;2.33;;;27.90;99.90;;;;;;5067036;28;20543;-47
2022/08/16 07:30:11;;;;;;;5.03;2.35;;;29.40;99.90;;;;;;5065111;28;20560;-52
2022/08/16 07:36:59;;;;;;;7.63;2.40;;;32.50;99.90;;;;;;5068004;28;20556;-49
2022/08/16 07:43:39;;;;;;;5.68;2.00;;;34.10;99.90;;;;;;5068919;28;19919;-47
2022/08/16 07:47:03;;;;;;;8.00;1.80;;;32.20;99.90;;;;;;5070280;28;20035;-50
2022/08/16 07:50:13;;;;;;;8.73;2.05;;;33.30;99.90;;;;;;5068913;28;20413;-47
2022/08/16 07:53:17;;;;;;;8.25;2.30;;;32.90;99.90;;;;;;5071276;28;20043;-49
2022/08/16 07:56:21;;;;;;;9.25;2.00;;;32.50;99.90;;;;;;5071986;28;20134;-48
2022/08/16 07:59:44;;;;;;;5.93;1.88;;;32.30;99.90;;;;;;5067115;28;20253;-49
2022/08/16 08:06:12;;;;;;;4.57;1.85;;;34.20;99.60;;;;;;5067485;28;20055;-49
2022/08/16 08:09:16;;;;;;;5.40;1.92;;;31.90;99.90;;;;;;5071188;28;20047;-47
2022/08/16 08:16:02;;;;;;;6.05;2.20;;;33.30;99.90;;;;;;5070028;28;20035;-50
2022/08/16 08:19:11;;;;;;;9.05;2.30;;;32.80;99.80;;;;;;5072237;28;20052;-46
2022/08/16 08:22:35;;;;;;;10.93;2.42;;;32.00;99.90;;;;;;5070748;28;20048;-50
2022/08/16 08:25:45;;;;;;;4.90;2.00;;;32.10;99.90;;;;;;5069879;28;20055;-49
2022/08/16 08:32:11;;;;;;;7.68;1.85;;;34.50;97.90;;;;;;5074971;28;20032;-49
2022/08/16 08:35:15;;;;;;;9.45;2.17;;;34.30;98.70;;;;;;5070159;28;20402;-49
2022/08/16 08:38:22;;;;;;;10.45;2.55;;;34.50;98.00;;;;;;5065683;28;20044;-48
2022/08/16 08:41:46;;;;;;;6.85;1.90;;;35.80;96.90;;;;;;5057573;28;20043;-49
2022/08/16 08:48:14;;;;;;;9.25;2.25;;;37.30;95.20;;;;;;5067788;28;20040;-49
2022/08/16 08:51:19;;;;;;;13.75;2.55;;;37.90;94.20;;;;;;5059842;28;20036;-46
2022/08/16 08:54:29;;;;;;;7.03;2.10;;;37.30;92.10;;;;;;5063398;28;20059;-51
2022/08/16 08:57:34;;;;;;;9.15;2.20;;;37.60;92.90;;;;;;5065064;28;20050;-46
2022/08/16 09:01:19;;;;;;;10.98;2.13;;;38.30;92.90;;;;;;5064707;28;20514;-50
2022/08/16 09:04:24;;;;;;;6.97;2.70;;;39.10;90.80;;;;;;5061458;28;20044;-46
2022/08/16 09:07:48;;;;;;;4.28;2.13;;;39.70;89.40;;;;;;5067867;28;20047;-51
2022/08/16 09:10:57;;;;;;;4.60;1.83;;;40.80;89.20;;;;;;5068486;28;20059;-48
2022/08/16 09:17:43;;;;;;;4.78;1.80;;;42.40;83.10;;;;;;5063437;28;20040;-47
2022/08/16 09:20:51;;;;;;;10.93;2.22;;;42.90;79.30;;;;;;5050238;28;20039;-48
2022/08/16 09:23:56;;;;;;;7.47;2.38;;;41.90;80.30;;;;;;5066118;28;20044;-51
2022/08/16 09:27:01;;;;;;;6.57;2.20;;;41.60;79.00;;;;;;5066074;28;20055;-51
2022/08/16 09:30:25;;;;;;;7.63;2.45;;;39.10;80.80;;;;;;5066481;28;20063;-50
2022/08/16 09:33:29;;;;;;;10.93;2.75;;;35.40;84.20;;;;;;5070046;28;20048;-52
2022/08/16 09:36:33;;;;;;;6.45;2.25;;;37.10;83.90;;;;;;5064301;28;20055;-51
2022/08/16 09:39:37;;;;;;;7.95;2.20;;;40.10;83.80;;;;;;5065457;28;20048;-51
2022/08/16 09:42:42;;;;;;;9.65;2.60;;;40.10;80.70;;;;;;5062848;28;20052;-51
2022/08/16 09:45:46;;;;;;;6.20;2.17;;;41.60;79.60;;;;;;5054220;28;20062;-53
2022/08/16 09:49:09;;;;;;;6.75;2.25;;;43.30;76.70;;;;;;5069686;28;20044;-53
2022/08/16 09:52:14;;;;;;;5.15;2.20;;;43.70;76.30;;;;;;5067076;28;20399;-50
2022/08/16 09:55:18;;;;;;;6.22;2.38;;;43.40;76.30;;;;;;5056222;28;20051;-50
2022/08/16 09:58:25;;;;;;;6.18;2.10;;;41.80;75.00;;;;;;5062180;28;20039;-51
2022/08/16 10:01:30;;;;;;;4.25;2.20;;;40.40;75.20;;;;;;5064020;28;20035;-52
2022/08/16 10:04:34;;;;;;;4.95;2.10;;;40.40;75.80;;;;;;5061497;28;20060;-49
2022/08/16 10:07:58;;;;;;;5.70;2.20;;;40.90;77.50;;;;;;5064629;28;20044;-50
2022/08/16 10:14:29;;;;;;;7.28;2.63;;;42.00;76.20;;;;;;5063707;28;20651;-49
2022/08/16 10:17:54;;;;;;;5.63;2.15;;;40.30;74.30;;;;;;5050092;28;20614;-47
2022/08/16 10:20:58;;;;;;;9.35;2.45;;;39.30;76.50;;;;;;5063353;28;20067;-49
2022/08/16 10:27:43;;;;;;;6.97;2.20;;;40.10;76.90;;;;;;5062532;28;20043;-51
2022/08/16 10:30:47;;;;;;;3.95;2.00;;;40.50;77.90;;;;;;5067398;28;20036;-52
2022/08/16 10:37:14;;;;;;;4.57;1.85;;;37.50;79.40;;;;;;5061122;28;20051;-48
2022/08/16 10:40:36;;;;;;;9.00;2.00;;;41.50;76.80;;;;;;5067951;28;20509;-50
2022/08/16 10:43:59;;;;;;;6.78;1.92;;;41.80;73.60;;;;;;5060759;28;20047;-48
2022/08/16 10:47:22;;;;;;;6.35;1.90;;;41.60;72.00;;;;;;5049391;28;20036;-51
2022/08/16 10:50:27;;;;;;;6.68;2.20;;;42.30;73.10;;;;;;5065950;28;20051;-50
2022/08/16 10:53:33;;;;;;;8.85;2.45;;;44.50;73.30;;;;;;5049703;28;20047;-50
2022/08/16 10:56:37;;;;;;;5.43;1.90;;;46.00;72.10;;;;;;5064274;28;20075;-51
2022/08/16 10:59:41;;;;;;;9.52;2.53;;;46.60;70.50;;;;;;5060556;28;20055;-51
2022/08/16 11:02:45;;;;;;;7.65;1.92;;;46.00;67.40;;;;;;5068387;28;20048;-50
2022/08/16 11:06:07;;;;;;;5.95;1.52;;;43.90;67.60;;;;;;5070438;28;20051;-49
2022/08/16 11:09:31;;;;;;;10.38;2.33;;;44.90;67.50;;;;;;5065437;28;20043;-51
2022/08/16 11:12:53;;;;;;;6.20;1.92;;;42.20;66.70;;;;;;5067823;28;20063;-50
2022/08/16 11:15:59;;;;;;;11.30;2.13;;;42.00;70.80;;;;;;5072263;28;20047;-49
2022/08/16 11:19:05;;;;;;;7.90;2.15;;;43.80;69.50;;;;;;5065966;28;20052;-51
2022/08/16 11:22:28;;;;;;;10.05;2.42;;;43.40;68.10;;;;;;5060156;28;20036;-51
2022/08/16 11:25:33;;;;;;;6.72;2.03;;;43.30;69.80;;;;;;5061694;28;20044;-48
2022/08/16 11:28:37;;;;;;;9.98;2.78;;;41.90;68.80;;;;;;5069640;28;20051;-47
2022/08/16 11:31:41;;;;;;;6.03;2.05;;;42.60;71.40;;;;;;5067447;28;20044;-47
2022/08/16 11:34:45;;;;;;;5.55;2.05;;;42.10;72.50;;;;;;5067815;28;20119;-51
2022/08/16 11:38:15;;;;;;;7.70;2.25;;;41.40;71.40;;;;;;5068711;28;20407;-51
2022/08/16 11:41:38;;;;;;;7.60;1.90;;;42.30;72.80;;;;;;5067042;28;20064;-50
2022/08/16 11:44:42;;;;;;;7.28;2.40;;;44.00;68.70;;;;;;5057545;28;20047;-48
2022/08/16 11:47:46;;;;;;;5.55;2.47;;;43.90;70.90;;;;;;5067532;28;20055;-50
2022/08/16 11:50:50;;;;;;;6.28;2.05;;;43.90;67.10;;;;;;5068629;28;20039;-50
2022/08/16 11:53:54;;;;;;;7.85;2.42;;;42.90;66.30;;;;;;5070912;28;20407;-49
2022/08/16 11:57:17;;;;;;;10.02;2.30;;;43.10;68.30;;;;;;5068926;28;20048;-51
2022/08/16 12:00:22;;;;;;;9.35;2.45;;;44.10;67.30;;;;;;5071818;28;20044;-50
2022/08/16 12:03:30;;;;;;;5.88;2.13;;;44.70;67.00;;;;;;5052593;28;20048;-50
2022/08/16 12:06:53;;;;;;;7.93;2.00;;;44.60;66.40;;;;;;5051616;28;20048;-49
2022/08/16 12:09:57;;;;;;;9.27;2.45;;;43.70;65.70;;;;;;5069241;28;20406;-48
2022/08/16 12:13:20;;;;;;;10.60;2.65;;;42.20;68.80;;;;;;5066199;28;20048;-50
2022/08/16 12:16:42;;;;;;;10.73;2.05;;;42.90;67.80;;;;;;5064338;28;20056;-50
2022/08/16 12:20:12;;;;;;;8.55;2.10;;;44.20;67.00;;;;;;5064334;28;20051;-51
2022/08/16 12:23:16;;;;;;;5.53;2.33;;;44.90;65.80;;;;;;5071632;28;20518;-49
2022/08/16 12:26:22;;;;;;;5.35;2.50;;;45.30;66.10;;;;;;5052083;28;20056;-51
2022/08/16 12:29:45;;;;;;;13.52;2.53;;;43.20;66.40;;;;;;5064771;28;20406;-47
2022/08/16 12:32:49;;;;;;;5.50;2.13;;;42.60;68.70;;;;;;5067918;28;20044;-48
2022/08/16 12:36:12;;;;;;;8.15;2.03;;;44.00;66.80;;;;;;5064131;28;20604;-50
2022/08/16 12:39:35;;;;;;;8.57;2.50;;;44.40;67.50;;;;;;5067906;28;20028;-49
2022/08/16 12:42:40;;;;;;;8.13;2.38;;;41.80;66.90;;;;;;5064598;28;20051;-48
2022/08/16 12:45:51;;;;;;;7.15;2.30;;;39.10;70.80;;;;;;5064420;28;20048;-50
2022/08/16 12:48:58;;;;;;;8.85;2.70;;;36.80;73.40;;;;;;5068871;28;20051;-49
2022/08/16 12:52:20;;;;;;;7.05;2.40;;;38.60;74.50;;;;;;5069032;28;20048;-50
2022/08/16 12:55:25;;;;;;;12.55;3.42;;;41.00;72.30;;;;;;5067073;28;20036;-49
2022/08/16 12:58:49;;;;;;;6.97;2.17;;;39.60;70.90;;;;;;5062027;28;20067;-49
2022/08/16 13:01:54;;;;;;;8.82;2.80;;;41.20;68.60;;;;;;5066200;28;20036;-49
2022/08/16 13:04:57;;;;;;;7.43;2.42;;;41.50;70.00;;;;;;5064903;28;20044;-46
2022/08/16 13:08:20;;;;;;;8.98;3.10;;;42.10;69.00;;;;;;5065869;28;20035;-50
2022/08/16 13:11:44;;;;;;;11.32;2.38;;;39.50;69.00;;;;;;5062845;28;20529;-47
2022/08/16 13:14:49;;;;;;;7.72;2.90;;;40.00;69.20;;;;;;5063242;28;20093;-48
2022/08/16 13:18:12;;;;;;;14.43;2.97;;;40.40;70.50;;;;;;5065820;28;20514;-47
2022/08/16 13:21:16;;;;;;;15.50;3.97;;;39.80;70.20;;;;;;5063634;28;20051;-48
2022/08/16 13:24:20;;;;;;;13.88;3.05;;;39.30;71.10;;;;;;5058328;28;20067;-52
2022/08/16 13:27:24;;;;;;;9.48;2.97;;;38.30;72.70;;;;;;5049915;28;20047;-47
2022/08/16 13:30:31;;;;;;;11.05;2.92;;;39.30;72.80;;;;;;5051144;28;20036;-51
2022/08/16 13:34:13;;;;;;;12.93;3.25;;;39.70;71.80;;;;;;5050869;28;20055;-47
2022/08/16 13:40:59;;;;;;;9.35;3.80;;;38.10;72.70;;;;;;5050727;28;20399;-46
2022/08/16 13:47:26;;;;;;;12.00;3.28;;;39.00;69.80;;;;;;5050528;28;20044;-51
2022/08/16 13:50:35;;;;;;;14.82;3.55;;;38.60;70.30;;;;;;5050526;28;20044;-47
2022/08/16 13:53:58;;;;;;;8.68;3.28;;;38.80;71.20;;;;;;5050659;28;20048;-52
2022/08/16 13:57:02;;;;;;;8.88;3.05;;;39.00;71.70;;;;;;5050394;28;20040;-50
2022/08/16 14:00:08;;;;;;;12.95;4.82;;;39.20;69.90;;;;;;5050039;28;20518;-47
2022/08/16 14:03:17;;;;;;;13.57;3.35;;;38.10;71.60;;;;;;5050147;28;20044;-46
2022/08/16 14:06:39;;;;;;;7.95;3.13;;;38.20;73.10;;;;;;5050133;28;20044;-48
2022/08/16 14:10:05;;;;;;;8.40;2.75;;;38.40;73.70;;;;;;5050240;28;20040;-50
2022/08/16 14:13:09;;;;;;;8.50;2.75;;;38.30;73.50;;;;;;5050485;28;20048;-51
2022/08/16 14:16:15;;;;;;;11.93;3.20;;;37.90;74.20;;;;;;5050279;28;20124;-50
2022/08/16 14:19:19;;;;;;;12.38;3.30;;;37.50;74.70;;;;;;5050125;28;20064;-51
2022/08/16 14:22:27;;;;;;;8.30;2.85;;;37.10;75.00;;;;;;5050578;28;20048;-46
2022/08/16 14:25:51;;;;;;;13.85;3.65;;;36.80;76.20;;;;;;5049573;28;20047;-52
2022/08/16 14:28:55;;;;;;;10.18;3.08;;;36.70;75.90;;;;;;5049821;28;20055;-48
2022/08/16 14:31:59;;;;;;;12.75;3.72;;;36.20;74.60;;;;;;5049760;28;20412;-47
2022/08/16 14:35:09;;;;;;;10.82;3.60;;;36.00;77.70;;;;;;5049947;28;20392;-49
2022/08/16 14:38:12;;;;;;;11.20;3.53;;;35.90;76.50;;;;;;5049134;28;20408;-48
2022/08/16 14:41:16;;;;;;;8.05;3.03;;;35.70;76.60;;;;;;5049781;28;20056;-47
2022/08/16 14:44:20;;;;;;;11.57;3.17;;;36.00;77.80;;;;;;5049341;28;20056;-51
2022/08/16 14:47:24;;;;;;;15.55;4.28;;;36.10;76.40;;;;;;5049701;28;20068;-51
2022/08/16 14:50:47;;;;;;;13.57;3.25;;;35.20;74.30;;;;;;5049003;28;20040;-47
2022/08/16 14:53:51;;;;;;;14.38;3.80;;;35.20;73.20;;;;;;5049314;28;20047;-49
2022/08/16 14:56:56;;;;;;;17.13;4.50;;;34.60;75.60;;;;;;5049659;28;20039;-51
2022/08/16 15:00:01;;;;;;;9.15;3.30;;;34.60;76.20;;;;;;5049053;28;20040;-47
2022/08/16 15:03:07;;;;;;;10.32;3.42;;;34.90;76.70;;;;;;5049531;28;20403;-47
2022/08/16 15:06:11;;;;;;;12.80;4.35;;;35.20;76.60;;;;;;5049140;28;20404;-51
2022/08/16 15:09:15;;;;;;;13.38;4.03;;;35.40;76.80;;;;;;5049211;28;20511;-48
2022/08/16 15:12:22;;;;;;;15.35;3.42;;;34.50;76.40;;;;;;5049780;28;20052;-47
2022/08/16 15:15:28;;;;;;;16.20;3.70;;;34.10;78.30;;;;;;5049233;28;20541;-46
2022/08/16 15:21:55;;;;;;;15.82;3.80;;;33.90;79.20;;;;;;5049433;28;20052;-51
2022/08/16 15:25:03;;;;;;;15.25;4.30;;;33.50;78.30;;;;;;5048042;28;20052;-49
2022/08/16 15:28:26;;;;;;;11.55;3.20;;;33.20;78.80;;;;;;5039587;28;20046;-47
2022/08/16 15:35:30;;;;;;;;;;;32.80;81.70;;;;;;5049627;28;20048;-52
2022/08/16 15:42:17;;;;;;;11.07;3.47;;;33.00;81.40;;;;;;5049096;28;20044;-49
2022/08/16 15:48:45;;;;;;;10.50;3.35;;;33.10;82.50;;;;;;5051592;28;20043;-45
2022/08/16 15:51:49;;;;;;;13.93;4.22;;;33.00;81.20;;;;;;5052701;28;20138;-45
2022/08/16 15:54:52;;;;;;;8.38;3.22;;;33.00;81.10;;;;;;5052672;28;20051;-48
2022/08/16 15:58:15;;;;;;;12.98;3.67;;;32.80;81.40;;;;;;5052696;28;20514;-47
2022/08/16 16:01:19;;;;;;;14.48;3.55;;;32.80;82.60;;;;;;5052433;28;20040;-47
2022/08/16 16:04:42;;;;;;;12.50;4.10;;;32.70;82.80;;;;;;5052441;28;20772;-47
2022/08/16 16:07:46;;;;;;;11.88;3.35;;;32.50;84.00;;;;;;5052248;28;20044;-51
2022/08/16 16:11:09;;;;;;;10.77;3.50;;;32.30;84.90;;;;;;5052214;28;20506;-48
2022/08/16 16:17:56;;;;;;;13.65;3.25;;;31.20;89.00;;;;;;5052724;28;20040;-47
2022/08/16 16:24:43;;;;;;;13.27;4.00;;;31.10;90.40;;;;;;5051927;28;20040;-48
2022/08/16 16:27:47;;;;;;;13.57;3.70;;;30.90;90.50;;;;;;5051894;28;20281;-51
2022/08/16 16:31:13;;;;;;;13.55;3.30;;;30.50;91.50;;;;;;5051782;28;20058;-51
2022/08/16 16:34:36;;;;;;;11.45;4.22;;;30.40;91.30;;;;;;5051936;28;20044;-48
2022/08/16 16:41:06;;;;;;;10.38;3.47;;;30.60;91.80;;;;;;5051590;28;20048;-45
2022/08/16 16:44:10;;;;;;;14.75;3.83;;;30.70;92.00;;;;;;5051663;28;20044;-48
2022/08/16 16:47:53;;;;;;;13.18;3.78;;;31.00;92.20;;;;;;5051389;28;20040;-47
2022/08/16 16:50:57;;;;;;;14.25;3.22;;;31.10;91.50;;;;;;5051490;28;20514;-47
2022/08/16 17:00:46;;;;;;;17.73;4.07;;;31.10;90.70;;;;;;5050719;28;20044;-51
2022/08/16 17:03:50;;;;;;;9.68;3.35;;;31.00;91.40;;;;;;5051655;28;20039;-45
2022/08/16 17:06:55;;;;;;;20.88;4.95;;;31.00;91.30;;;;;;5051493;28;20064;-46
2022/08/16 17:09:59;;;;;;;11.95;3.70;;;31.10;90.90;;;;;;5051604;28;20409;-47
2022/08/16 17:13:22;;;;;;;15.45;4.32;;;31.10;90.40;;;;;;5051318;28;20043;-50
2022/08/16 17:16:26;;;;;;;12.30;4.07;;;31.10;92.10;;;;;;5051328;28;20052;-46
2022/08/16 17:19:30;;;;;;;12.60;3.70;;;31.10;91.90;;;;;;5051425;28;20032;-48
2022/08/16 17:22:35;;;;;;;17.98;4.50;;;31.00;90.30;;;;;;5051293;28;20060;-49
2022/08/16 17:25:39;;;;;;;16.00;4.30;;;30.90;90.80;;;;;;5051010;28;20048;-48
2022/08/16 17:28:43;;;;;;;12.77;5.07;;;30.70;90.90;;;;;;5050154;28;20044;-47
2022/08/16 17:31:47;;;;;;;12.63;3.65;;;30.60;91.60;;;;;;5051071;28;20107;-47
2022/08/16 17:34:52;;;;;;;11.40;3.90;;;30.50;92.20;;;;;;5043076;22;20050;-57
2022/08/16 17:38:16;;;;;;;11.63;4.22;;;30.40;92.60;;;;;;4988915;28;20047;-54
2022/08/16 17:41:20;;;;;;;14.75;4.82;;;30.30;93.20;;;;;;4988651;28;20033;-55
2022/08/16 17:44:44;;;;;;;14.10;4.32;;;30.10;93.70;;;;;;4988403;28;20065;-54
2022/08/16 17:47:48;;;;;;;11.85;4.07;;;29.90;93.60;;;;;;4988556;28;20045;-56
2022/08/16 17:54:35;;;;;;;11.57;3.67;;;29.60;94.30;;;;;;4988213;28;20520;-55
2022/08/16 17:57:40;;;;;;;16.67;4.93;;;29.50;94.60;;;;;;4988445;28;20047;-53
2022/08/16 18:00:44;;;;;;;12.52;4.28;;;29.30;95.10;;;;;;4987508;28;20045;-54
2022/08/16 18:03:48;;;;;;;16.17;4.32;;;29.20;95.60;;;;;;4987726;28;20049;-53
2022/08/16 18:06:53;;;;;;;21.13;6.05;;;29.10;96.30;;;;;;4988172;28;20053;-54
2022/08/16 18:09:58;;;;;;;20.25;10.15;;;28.90;96.70;;;;;;4988212;28;20042;-54